sensor_id;sensor_type;location;lat;lon;timestamp;P1;durP1;ratioP1;P2;durP2;ratioP2
52320;SDS011;38261;54.090;13.382;2023-08-06T00:00:19;4.47;;;2.60;;
52320;SDS011;38261;54.090;13.382;2023-08-06T00:01:41;12.00;;;2.70;;
52320;SDS011;38261;54.090;13.382;2023-08-06T00:03:04;8.10;;;3.00;;
52320;SDS011;38261;54.090;13.382;2023-08-06T00:04:27;6.00;;;2.83;;
52320;SDS011;38261;54.090;13.382;2023-08-06T00:05:49;7.53;;;2.87;;
52320;SDS011;38261;54.090;13.382;2023-08-06T00:07:12;4.43;;;3.03;;
52320;SDS011;38261;54.090;13.382;2023-08-06T00:08:34;6.67;;;3.10;;
52320;SDS011;38261;54.090;13.382;2023-08-06T00:09:56;5.93;;;3.17;;
52320;SDS011;38261;54.090;13.382;2023-08-06T00:11:18;8.83;;;4.17;;
52320;SDS011;38261;54.090;13.382;2023-08-06T00:12:41;15.30;;;7.40;;
52320;SDS011;38261;54.090;13.382;2023-08-06T00:14:03;9.57;;;5.53;;
52320;SDS011;38261;54.090;13.382;2023-08-06T00:15:25;10.77;;;6.33;;
52320;SDS011;38261;54.090;13.382;2023-08-06T00:16:47;7.80;;;5.00;;
52320;SDS011;38261;54.090;13.382;2023-08-06T00:18:09;6.00;;;4.43;;
52320;SDS011;38261;54.090;13.382;2023-08-06T00:19:32;9.83;;;5.30;;
52320;SDS011;38261;54.090;13.382;2023-08-06T00:20:54;7.73;;;4.43;;
52320;SDS011;38261;54.090;13.382;2023-08-06T00:22:16;8.17;;;4.30;;
52320;SDS011;38261;54.090;13.382;2023-08-06T00:23:39;9.87;;;4.60;;
52320;SDS011;38261;54.090;13.382;2023-08-06T00:25:02;11.43;;;4.80;;
52320;SDS011;38261;54.090;13.382;2023-08-06T00:26:25;6.93;;;4.57;;
52320;SDS011;38261;54.090;13.382;2023-08-06T00:27:47;10.23;;;4.83;;
52320;SDS011;38261;54.090;13.382;2023-08-06T00:29:09;6.77;;;5.03;;
52320;SDS011;38261;54.090;13.382;2023-08-06T00:30:31;7.57;;;4.37;;
52320;SDS011;38261;54.090;13.382;2023-08-06T00:31:53;6.10;;;3.70;;
52320;SDS011;38261;54.090;13.382;2023-08-06T00:33:16;9.83;;;4.53;;
52320;SDS011;38261;54.090;13.382;2023-08-06T00:34:38;8.27;;;5.03;;
52320;SDS011;38261;54.090;13.382;2023-08-06T00:36:00;12.73;;;4.63;;
52320;SDS011;38261;54.090;13.382;2023-08-06T00:37:22;10.27;;;4.67;;
52320;SDS011;38261;54.090;13.382;2023-08-06T00:38:44;7.53;;;4.50;;
52320;SDS011;38261;54.090;13.382;2023-08-06T00:40:07;8.03;;;4.37;;
52320;SDS011;38261;54.090;13.382;2023-08-06T00:41:30;10.47;;;5.03;;
52320;SDS011;38261;54.090;13.382;2023-08-06T00:42:52;8.07;;;5.00;;
52320;SDS011;38261;54.090;13.382;2023-08-06T00:44:14;8.30;;;4.70;;
52320;SDS011;38261;54.090;13.382;2023-08-06T00:45:37;7.57;;;3.90;;
52320;SDS011;38261;54.090;13.382;2023-08-06T00:46:59;9.40;;;3.83;;
52320;SDS011;38261;54.090;13.382;2023-08-06T00:48:22;6.00;;;3.80;;
52320;SDS011;38261;54.090;13.382;2023-08-06T00:49:44;11.10;;;4.73;;
52320;SDS011;38261;54.090;13.382;2023-08-06T00:51:06;8.93;;;4.07;;
52320;SDS011;38261;54.090;13.382;2023-08-06T00:52:31;8.90;;;4.30;;
52320;SDS011;38261;54.090;13.382;2023-08-06T00:53:53;8.10;;;4.40;;
52320;SDS011;38261;54.090;13.382;2023-08-06T00:55:17;9.90;;;4.00;;
52320;SDS011;38261;54.090;13.382;2023-08-06T00:56:39;6.43;;;3.93;;
52320;SDS011;38261;54.090;13.382;2023-08-06T00:58:03;5.97;;;3.80;;
52320;SDS011;38261;54.090;13.382;2023-08-06T00:59:26;8.37;;;4.20;;
52320;SDS011;38261;54.090;13.382;2023-08-06T01:00:49;6.10;;;4.17;;
52320;SDS011;38261;54.090;13.382;2023-08-06T01:02:11;7.40;;;4.23;;
52320;SDS011;38261;54.090;13.382;2023-08-06T01:03:33;10.20;;;4.63;;
52320;SDS011;38261;54.090;13.382;2023-08-06T01:04:55;9.70;;;4.83;;
52320;SDS011;38261;54.090;13.382;2023-08-06T01:06:18;8.23;;;4.43;;
52320;SDS011;38261;54.090;13.382;2023-08-06T01:09:57;12.03;;;4.73;;
52320;SDS011;38261;54.090;13.382;2023-08-06T01:11:59;16.93;;;6.73;;
52320;SDS011;38261;54.090;13.382;2023-08-06T01:15:24;13.70;;;7.17;;
52320;SDS011;38261;54.090;13.382;2023-08-06T01:16:50;14.30;;;6.97;;
52320;SDS011;38261;54.090;13.382;2023-08-06T01:18:13;9.10;;;5.70;;
52320;SDS011;38261;54.090;13.382;2023-08-06T01:19:36;7.87;;;5.20;;
52320;SDS011;38261;54.090;13.382;2023-08-06T01:20:58;8.60;;;4.90;;
52320;SDS011;38261;54.090;13.382;2023-08-06T01:22:20;7.83;;;3.97;;
52320;SDS011;38261;54.090;13.382;2023-08-06T01:23:42;10.40;;;4.80;;
52320;SDS011;38261;54.090;13.382;2023-08-06T01:25:05;10.10;;;5.00;;
52320;SDS011;38261;54.090;13.382;2023-08-06T01:26:33;8.67;;;4.80;;
52320;SDS011;38261;54.090;13.382;2023-08-06T01:28:03;5.17;;;4.23;;
52320;SDS011;38261;54.090;13.382;2023-08-06T01:29:36;7.87;;;4.07;;
52320;SDS011;38261;54.090;13.382;2023-08-06T01:31:04;10.30;;;3.93;;
52320;SDS011;38261;54.090;13.382;2023-08-06T01:32:32;7.73;;;4.13;;
52320;SDS011;38261;54.090;13.382;2023-08-06T01:33:58;5.50;;;4.13;;
52320;SDS011;38261;54.090;13.382;2023-08-06T01:35:21;9.33;;;3.90;;
52320;SDS011;38261;54.090;13.382;2023-08-06T01:36:44;7.07;;;3.73;;
52320;SDS011;38261;54.090;13.382;2023-08-06T01:38:07;6.03;;;4.10;;
52320;SDS011;38261;54.090;13.382;2023-08-06T01:39:29;4.90;;;4.03;;
52320;SDS011;38261;54.090;13.382;2023-08-06T01:40:54;9.10;;;4.40;;
52320;SDS011;38261;54.090;13.382;2023-08-06T01:42:16;6.10;;;4.07;;
52320;SDS011;38261;54.090;13.382;2023-08-06T01:43:39;5.97;;;4.23;;
52320;SDS011;38261;54.090;13.382;2023-08-06T01:45:01;6.83;;;4.10;;
52320;SDS011;38261;54.090;13.382;2023-08-06T01:46:23;7.90;;;4.90;;
52320;SDS011;38261;54.090;13.382;2023-08-06T01:47:45;5.30;;;3.93;;
52320;SDS011;38261;54.090;13.382;2023-08-06T01:49:07;6.07;;;4.23;;
52320;SDS011;38261;54.090;13.382;2023-08-06T01:50:30;8.07;;;4.70;;
52320;SDS011;38261;54.090;13.382;2023-08-06T01:51:52;10.20;;;5.10;;
52320;SDS011;38261;54.090;13.382;2023-08-06T01:53:14;14.07;;;5.47;;
52320;SDS011;38261;54.090;13.382;2023-08-06T01:54:36;7.77;;;4.30;;
52320;SDS011;38261;54.090;13.382;2023-08-06T01:55:58;5.60;;;4.30;;
52320;SDS011;38261;54.090;13.382;2023-08-06T01:57:21;11.17;;;5.17;;
52320;SDS011;38261;54.090;13.382;2023-08-06T01:58:43;5.10;;;3.80;;
52320;SDS011;38261;54.090;13.382;2023-08-06T02:00:05;6.03;;;4.23;;
52320;SDS011;38261;54.090;13.382;2023-08-06T02:01:28;12.03;;;4.63;;
52320;SDS011;38261;54.090;13.382;2023-08-06T02:02:51;6.43;;;4.30;;
52320;SDS011;38261;54.090;13.382;2023-08-06T02:04:13;8.00;;;4.47;;
52320;SDS011;38261;54.090;13.382;2023-08-06T02:05:35;8.30;;;4.30;;
52320;SDS011;38261;54.090;13.382;2023-08-06T02:06:57;6.20;;;4.27;;
52320;SDS011;38261;54.090;13.382;2023-08-06T02:08:19;7.07;;;4.80;;
52320;SDS011;38261;54.090;13.382;2023-08-06T02:09:41;4.90;;;4.13;;
52320;SDS011;38261;54.090;13.382;2023-08-06T02:11:03;5.40;;;4.13;;
52320;SDS011;38261;54.090;13.382;2023-08-06T02:12:26;7.67;;;4.50;;
52320;SDS011;38261;54.090;13.382;2023-08-06T02:13:48;6.90;;;4.03;;
52320;SDS011;38261;54.090;13.382;2023-08-06T02:15:10;5.63;;;4.37;;
52320;SDS011;38261;54.090;13.382;2023-08-06T02:16:32;4.70;;;3.50;;
52320;SDS011;38261;54.090;13.382;2023-08-06T02:17:54;6.37;;;3.90;;
52320;SDS011;38261;54.090;13.382;2023-08-06T02:19:16;5.53;;;3.87;;
52320;SDS011;38261;54.090;13.382;2023-08-06T02:20:38;7.00;;;3.87;;
52320;SDS011;38261;54.090;13.382;2023-08-06T02:22:01;8.87;;;4.10;;
52320;SDS011;38261;54.090;13.382;2023-08-06T02:23:24;6.17;;;3.90;;
52320;SDS011;38261;54.090;13.382;2023-08-06T02:24:46;7.37;;;4.70;;
52320;SDS011;38261;54.090;13.382;2023-08-06T02:26:10;8.57;;;4.30;;
52320;SDS011;38261;54.090;13.382;2023-08-06T02:27:32;8.00;;;3.93;;
52320;SDS011;38261;54.090;13.382;2023-08-06T02:28:54;8.97;;;3.80;;
52320;SDS011;38261;54.090;13.382;2023-08-06T02:30:17;5.43;;;3.83;;
52320;SDS011;38261;54.090;13.382;2023-08-06T02:31:39;5.93;;;3.83;;
52320;SDS011;38261;54.090;13.382;2023-08-06T02:33:01;3.50;;;3.20;;
52320;SDS011;38261;54.090;13.382;2023-08-06T02:34:24;6.70;;;3.87;;
52320;SDS011;38261;54.090;13.382;2023-08-06T02:35:46;8.80;;;3.70;;
52320;SDS011;38261;54.090;13.382;2023-08-06T02:37:08;5.17;;;3.33;;
52320;SDS011;38261;54.090;13.382;2023-08-06T02:38:31;5.33;;;3.20;;
52320;SDS011;38261;54.090;13.382;2023-08-06T02:39:53;6.23;;;3.87;;
52320;SDS011;38261;54.090;13.382;2023-08-06T02:41:15;7.17;;;3.30;;
52320;SDS011;38261;54.090;13.382;2023-08-06T02:42:37;9.20;;;3.47;;
52320;SDS011;38261;54.090;13.382;2023-08-06T02:44:00;9.50;;;3.77;;
52320;SDS011;38261;54.090;13.382;2023-08-06T02:45:22;5.70;;;3.30;;
52320;SDS011;38261;54.090;13.382;2023-08-06T02:46:44;6.67;;;3.43;;
52320;SDS011;38261;54.090;13.382;2023-08-06T02:48:07;7.20;;;3.43;;
52320;SDS011;38261;54.090;13.382;2023-08-06T02:49:29;8.10;;;3.50;;
52320;SDS011;38261;54.090;13.382;2023-08-06T02:50:51;8.43;;;3.20;;
52320;SDS011;38261;54.090;13.382;2023-08-06T02:52:13;6.67;;;3.43;;
52320;SDS011;38261;54.090;13.382;2023-08-06T02:53:35;4.83;;;3.40;;
52320;SDS011;38261;54.090;13.382;2023-08-06T02:54:57;8.67;;;3.70;;
52320;SDS011;38261;54.090;13.382;2023-08-06T02:56:21;7.03;;;3.40;;
52320;SDS011;38261;54.090;13.382;2023-08-06T02:57:44;6.27;;;3.03;;
52320;SDS011;38261;54.090;13.382;2023-08-06T02:59:06;4.10;;;3.10;;
52320;SDS011;38261;54.090;13.382;2023-08-06T03:00:28;5.60;;;3.33;;
52320;SDS011;38261;54.090;13.382;2023-08-06T03:01:50;7.60;;;3.10;;
52320;SDS011;38261;54.090;13.382;2023-08-06T03:03:12;5.73;;;3.50;;
52320;SDS011;38261;54.090;13.382;2023-08-06T03:04:34;4.93;;;3.47;;
52320;SDS011;38261;54.090;13.382;2023-08-06T03:05:57;5.97;;;3.57;;
52320;SDS011;38261;54.090;13.382;2023-08-06T03:07:19;10.10;;;3.77;;
52320;SDS011;38261;54.090;13.382;2023-08-06T03:08:41;6.50;;;3.50;;
52320;SDS011;38261;54.090;13.382;2023-08-06T03:10:03;6.80;;;3.20;;
52320;SDS011;38261;54.090;13.382;2023-08-06T03:11:26;7.10;;;3.43;;
52320;SDS011;38261;54.090;13.382;2023-08-06T03:12:48;5.70;;;3.40;;
52320;SDS011;38261;54.090;13.382;2023-08-06T03:14:10;9.87;;;3.63;;
52320;SDS011;38261;54.090;13.382;2023-08-06T03:15:32;9.33;;;3.90;;
52320;SDS011;38261;54.090;13.382;2023-08-06T03:16:54;6.43;;;3.70;;
52320;SDS011;38261;54.090;13.382;2023-08-06T03:18:16;8.43;;;3.80;;
52320;SDS011;38261;54.090;13.382;2023-08-06T03:19:38;10.37;;;4.80;;
52320;SDS011;38261;54.090;13.382;2023-08-06T03:21:01;9.67;;;4.20;;
52320;SDS011;38261;54.090;13.382;2023-08-06T03:22:23;6.60;;;4.10;;
52320;SDS011;38261;54.090;13.382;2023-08-06T03:23:46;7.00;;;4.27;;
52320;SDS011;38261;54.090;13.382;2023-08-06T03:25:10;6.50;;;3.33;;
52320;SDS011;38261;54.090;13.382;2023-08-06T03:26:32;4.20;;;3.03;;
52320;SDS011;38261;54.090;13.382;2023-08-06T03:27:54;6.73;;;3.40;;
52320;SDS011;38261;54.090;13.382;2023-08-06T03:29:17;5.30;;;2.77;;
52320;SDS011;38261;54.090;13.382;2023-08-06T03:30:39;4.30;;;3.40;;
52320;SDS011;38261;54.090;13.382;2023-08-06T03:32:01;4.87;;;3.33;;
52320;SDS011;38261;54.090;13.382;2023-08-06T03:33:24;10.20;;;3.33;;
52320;SDS011;38261;54.090;13.382;2023-08-06T03:34:46;5.43;;;3.17;;
52320;SDS011;38261;54.090;13.382;2023-08-06T03:36:08;7.13;;;4.37;;
52320;SDS011;38261;54.090;13.382;2023-08-06T03:37:30;7.70;;;4.53;;
52320;SDS011;38261;54.090;13.382;2023-08-06T03:38:52;6.50;;;3.60;;
52320;SDS011;38261;54.090;13.382;2023-08-06T03:40:14;7.57;;;4.63;;
52320;SDS011;38261;54.090;13.382;2023-08-06T03:41:36;8.73;;;5.03;;
52320;SDS011;38261;54.090;13.382;2023-08-06T03:42:59;7.10;;;4.50;;
52320;SDS011;38261;54.090;13.382;2023-08-06T03:44:21;6.57;;;4.13;;
52320;SDS011;38261;54.090;13.382;2023-08-06T03:45:43;8.23;;;4.10;;
52320;SDS011;38261;54.090;13.382;2023-08-06T03:47:05;8.27;;;4.50;;
52320;SDS011;38261;54.090;13.382;2023-08-06T03:48:27;6.17;;;3.40;;
52320;SDS011;38261;54.090;13.382;2023-08-06T03:49:49;9.13;;;3.77;;
52320;SDS011;38261;54.090;13.382;2023-08-06T03:51:11;6.90;;;3.87;;
52320;SDS011;38261;54.090;13.382;2023-08-06T03:52:34;5.10;;;3.47;;
52320;SDS011;38261;54.090;13.382;2023-08-06T03:53:56;7.50;;;3.77;;
52320;SDS011;38261;54.090;13.382;2023-08-06T03:55:18;5.30;;;2.90;;
52320;SDS011;38261;54.090;13.382;2023-08-06T03:56:40;3.67;;;2.90;;
52320;SDS011;38261;54.090;13.382;2023-08-06T03:58:03;7.83;;;3.23;;
52320;SDS011;38261;54.090;13.382;2023-08-06T03:59:25;5.20;;;3.13;;
52320;SDS011;38261;54.090;13.382;2023-08-06T04:00:47;6.17;;;3.10;;
52320;SDS011;38261;54.090;13.382;2023-08-06T04:02:09;7.33;;;3.50;;
52320;SDS011;38261;54.090;13.382;2023-08-06T04:03:31;5.37;;;3.20;;
52320;SDS011;38261;54.090;13.382;2023-08-06T04:04:53;4.63;;;3.40;;
52320;SDS011;38261;54.090;13.382;2023-08-06T04:06:16;6.10;;;3.10;;
52320;SDS011;38261;54.090;13.382;2023-08-06T04:07:38;3.50;;;3.00;;
52320;SDS011;38261;54.090;13.382;2023-08-06T04:09:00;7.23;;;3.17;;
52320;SDS011;38261;54.090;13.382;2023-08-06T04:10:22;10.20;;;3.20;;
52320;SDS011;38261;54.090;13.382;2023-08-06T04:11:44;7.40;;;2.80;;
52320;SDS011;38261;54.090;13.382;2023-08-06T04:13:06;7.50;;;2.97;;
52320;SDS011;38261;54.090;13.382;2023-08-06T04:14:28;5.33;;;2.97;;
52320;SDS011;38261;54.090;13.382;2023-08-06T04:15:50;5.90;;;2.83;;
52320;SDS011;38261;54.090;13.382;2023-08-06T04:17:12;5.77;;;3.50;;
52320;SDS011;38261;54.090;13.382;2023-08-06T04:18:35;5.73;;;3.23;;
52320;SDS011;38261;54.090;13.382;2023-08-06T04:19:57;5.60;;;3.70;;
52320;SDS011;38261;54.090;13.382;2023-08-06T04:21:20;3.73;;;3.40;;
52320;SDS011;38261;54.090;13.382;2023-08-06T04:22:42;4.40;;;3.73;;
52320;SDS011;38261;54.090;13.382;2023-08-06T04:24:04;3.80;;;3.40;;
52320;SDS011;38261;54.090;13.382;2023-08-06T04:25:26;4.53;;;2.87;;
52320;SDS011;38261;54.090;13.382;2023-08-06T04:26:48;5.00;;;3.20;;
52320;SDS011;38261;54.090;13.382;2023-08-06T04:28:10;8.50;;;3.50;;
52320;SDS011;38261;54.090;13.382;2023-08-06T04:29:32;7.07;;;2.90;;
52320;SDS011;38261;54.090;13.382;2023-08-06T04:30:54;5.67;;;3.07;;
52320;SDS011;38261;54.090;13.382;2023-08-06T04:32:17;9.37;;;3.70;;
52320;SDS011;38261;54.090;13.382;2023-08-06T04:33:41;6.53;;;2.87;;
52320;SDS011;38261;54.090;13.382;2023-08-06T04:35:03;6.43;;;3.53;;
52320;SDS011;38261;54.090;13.382;2023-08-06T04:36:25;3.60;;;2.80;;
52320;SDS011;38261;54.090;13.382;2023-08-06T04:37:47;4.63;;;3.30;;
52320;SDS011;38261;54.090;13.382;2023-08-06T04:39:09;6.00;;;3.77;;
52320;SDS011;38261;54.090;13.382;2023-08-06T04:40:35;4.20;;;2.77;;
52320;SDS011;38261;54.090;13.382;2023-08-06T04:41:57;5.17;;;3.13;;
52320;SDS011;38261;54.090;13.382;2023-08-06T04:43:19;3.63;;;2.70;;
52320;SDS011;38261;54.090;13.382;2023-08-06T04:44:41;3.87;;;2.80;;
52320;SDS011;38261;54.090;13.382;2023-08-06T04:46:03;8.70;;;3.13;;
52320;SDS011;38261;54.090;13.382;2023-08-06T04:47:27;6.70;;;2.97;;
52320;SDS011;38261;54.090;13.382;2023-08-06T04:48:49;3.20;;;2.90;;
52320;SDS011;38261;54.090;13.382;2023-08-06T04:50:11;6.77;;;2.70;;
52320;SDS011;38261;54.090;13.382;2023-08-06T04:51:33;3.67;;;2.90;;
52320;SDS011;38261;54.090;13.382;2023-08-06T04:52:55;5.20;;;2.83;;
52320;SDS011;38261;54.090;13.382;2023-08-06T04:54:17;6.97;;;3.10;;
52320;SDS011;38261;54.090;13.382;2023-08-06T04:55:39;9.53;;;3.50;;
52320;SDS011;38261;54.090;13.382;2023-08-06T04:57:02;4.20;;;2.80;;
52320;SDS011;38261;54.090;13.382;2023-08-06T04:58:24;3.30;;;2.50;;
52320;SDS011;38261;54.090;13.382;2023-08-06T04:59:46;4.57;;;2.83;;
52320;SDS011;38261;54.090;13.382;2023-08-06T05:01:09;8.03;;;2.87;;
52320;SDS011;38261;54.090;13.382;2023-08-06T05:02:31;4.93;;;2.93;;
52320;SDS011;38261;54.090;13.382;2023-08-06T05:03:53;3.90;;;3.00;;
52320;SDS011;38261;54.090;13.382;2023-08-06T05:05:16;6.37;;;2.67;;
52320;SDS011;38261;54.090;13.382;2023-08-06T05:06:38;4.13;;;3.30;;
52320;SDS011;38261;54.090;13.382;2023-08-06T05:08:00;3.40;;;2.77;;
52320;SDS011;38261;54.090;13.382;2023-08-06T05:09:22;4.67;;;2.80;;
52320;SDS011;38261;54.090;13.382;2023-08-06T05:10:44;4.40;;;3.03;;
52320;SDS011;38261;54.090;13.382;2023-08-06T05:12:07;6.43;;;2.80;;
52320;SDS011;38261;54.090;13.382;2023-08-06T05:13:29;5.00;;;2.80;;
52320;SDS011;38261;54.090;13.382;2023-08-06T05:14:51;5.33;;;3.00;;
52320;SDS011;38261;54.090;13.382;2023-08-06T05:16:13;3.73;;;2.90;;
52320;SDS011;38261;54.090;13.382;2023-08-06T05:17:35;5.97;;;2.67;;
52320;SDS011;38261;54.090;13.382;2023-08-06T05:18:58;3.20;;;2.27;;
52320;SDS011;38261;54.090;13.382;2023-08-06T05:20:20;5.87;;;2.67;;
52320;SDS011;38261;54.090;13.382;2023-08-06T05:21:42;4.43;;;2.90;;
52320;SDS011;38261;54.090;13.382;2023-08-06T05:23:04;6.50;;;3.03;;
52320;SDS011;38261;54.090;13.382;2023-08-06T05:24:26;3.20;;;2.90;;
52320;SDS011;38261;54.090;13.382;2023-08-06T05:25:48;4.87;;;2.53;;
52320;SDS011;38261;54.090;13.382;2023-08-06T05:27:11;4.67;;;2.83;;
52320;SDS011;38261;54.090;13.382;2023-08-06T05:28:33;11.23;;;2.93;;
52320;SDS011;38261;54.090;13.382;2023-08-06T05:29:56;4.60;;;2.60;;
52320;SDS011;38261;54.090;13.382;2023-08-06T05:31:18;8.73;;;3.43;;
52320;SDS011;38261;54.090;13.382;2023-08-06T05:32:40;3.50;;;2.80;;
52320;SDS011;38261;54.090;13.382;2023-08-06T05:34:02;5.30;;;3.00;;
52320;SDS011;38261;54.090;13.382;2023-08-06T05:35:24;4.60;;;2.50;;
52320;SDS011;38261;54.090;13.382;2023-08-06T05:36:46;4.60;;;2.50;;
52320;SDS011;38261;54.090;13.382;2023-08-06T05:38:08;5.80;;;2.80;;
52320;SDS011;38261;54.090;13.382;2023-08-06T05:39:31;5.47;;;2.40;;
52320;SDS011;38261;54.090;13.382;2023-08-06T05:40:53;2.47;;;2.27;;
52320;SDS011;38261;54.090;13.382;2023-08-06T05:42:15;6.67;;;2.60;;
52320;SDS011;38261;54.090;13.382;2023-08-06T05:43:38;3.83;;;2.63;;
52320;SDS011;38261;54.090;13.382;2023-08-06T05:45:00;5.27;;;3.03;;
52320;SDS011;38261;54.090;13.382;2023-08-06T05:46:22;3.73;;;2.70;;
52320;SDS011;38261;54.090;13.382;2023-08-06T05:47:45;4.10;;;2.40;;
52320;SDS011;38261;54.090;13.382;2023-08-06T05:49:09;5.47;;;2.63;;
52320;SDS011;38261;54.090;13.382;2023-08-06T05:50:31;5.23;;;2.60;;
52320;SDS011;38261;54.090;13.382;2023-08-06T05:51:53;8.27;;;2.70;;
52320;SDS011;38261;54.090;13.382;2023-08-06T05:53:16;9.37;;;3.03;;
52320;SDS011;38261;54.090;13.382;2023-08-06T05:54:38;3.30;;;2.57;;
52320;SDS011;38261;54.090;13.382;2023-08-06T05:56:01;3.10;;;2.17;;
52320;SDS011;38261;54.090;13.382;2023-08-06T05:57:24;3.67;;;2.40;;
52320;SDS011;38261;54.090;13.382;2023-08-06T05:58:46;4.17;;;2.50;;
52320;SDS011;38261;54.090;13.382;2023-08-06T06:00:09;3.03;;;2.47;;
52320;SDS011;38261;54.090;13.382;2023-08-06T06:01:31;4.70;;;3.00;;
52320;SDS011;38261;54.090;13.382;2023-08-06T06:02:53;3.30;;;2.53;;
52320;SDS011;38261;54.090;13.382;2023-08-06T06:04:16;3.60;;;2.30;;
52320;SDS011;38261;54.090;13.382;2023-08-06T06:05:38;7.43;;;2.90;;
52320;SDS011;38261;54.090;13.382;2023-08-06T06:07:03;6.83;;;2.33;;
52320;SDS011;38261;54.090;13.382;2023-08-06T06:08:25;5.10;;;2.67;;
52320;SDS011;38261;54.090;13.382;2023-08-06T06:09:47;3.93;;;3.17;;
52320;SDS011;38261;54.090;13.382;2023-08-06T06:11:09;3.33;;;3.00;;
52320;SDS011;38261;54.090;13.382;2023-08-06T06:12:31;4.13;;;2.40;;
52320;SDS011;38261;54.090;13.382;2023-08-06T06:13:53;3.30;;;2.50;;
52320;SDS011;38261;54.090;13.382;2023-08-06T06:15:16;6.47;;;2.90;;
52320;SDS011;38261;54.090;13.382;2023-08-06T06:16:38;3.73;;;2.57;;
52320;SDS011;38261;54.090;13.382;2023-08-06T06:18:00;5.63;;;2.57;;
52320;SDS011;38261;54.090;13.382;2023-08-06T06:19:22;3.90;;;2.40;;
52320;SDS011;38261;54.090;13.382;2023-08-06T06:20:44;2.80;;;2.30;;
52320;SDS011;38261;54.090;13.382;2023-08-06T06:22:06;6.33;;;2.60;;
52320;SDS011;38261;54.090;13.382;2023-08-06T06:23:28;4.30;;;3.53;;
52320;SDS011;38261;54.090;13.382;2023-08-06T06:24:50;5.83;;;3.07;;
52320;SDS011;38261;54.090;13.382;2023-08-06T06:26:12;7.87;;;3.20;;
52320;SDS011;38261;54.090;13.382;2023-08-06T06:27:34;9.57;;;3.07;;
52320;SDS011;38261;54.090;13.382;2023-08-06T06:28:57;4.57;;;2.60;;
52320;SDS011;38261;54.090;13.382;2023-08-06T06:30:19;8.27;;;2.70;;
52320;SDS011;38261;54.090;13.382;2023-08-06T06:31:41;7.27;;;2.97;;
52320;SDS011;38261;54.090;13.382;2023-08-06T06:33:03;7.10;;;2.60;;
52320;SDS011;38261;54.090;13.382;2023-08-06T06:34:25;6.37;;;3.00;;
52320;SDS011;38261;54.090;13.382;2023-08-06T06:35:48;8.73;;;3.03;;
52320;SDS011;38261;54.090;13.382;2023-08-06T06:37:10;4.23;;;2.83;;
52320;SDS011;38261;54.090;13.382;2023-08-06T06:38:33;9.20;;;2.93;;
52320;SDS011;38261;54.090;13.382;2023-08-06T06:39:55;6.93;;;3.03;;
52320;SDS011;38261;54.090;13.382;2023-08-06T06:41:18;7.10;;;3.00;;
52320;SDS011;38261;54.090;13.382;2023-08-06T06:42:40;11.23;;;3.07;;
52320;SDS011;38261;54.090;13.382;2023-08-06T06:44:02;6.80;;;3.03;;
52320;SDS011;38261;54.090;13.382;2023-08-06T06:45:24;7.70;;;3.10;;
52320;SDS011;38261;54.090;13.382;2023-08-06T06:46:46;12.30;;;3.07;;
52320;SDS011;38261;54.090;13.382;2023-08-06T06:48:08;6.53;;;3.07;;
52320;SDS011;38261;54.090;13.382;2023-08-06T06:49:30;9.20;;;3.27;;
52320;SDS011;38261;54.090;13.382;2023-08-06T06:50:52;7.60;;;3.17;;
52320;SDS011;38261;54.090;13.382;2023-08-06T06:52:15;14.80;;;3.97;;
52320;SDS011;38261;54.090;13.382;2023-08-06T06:53:37;4.50;;;2.70;;
52320;SDS011;38261;54.090;13.382;2023-08-06T06:54:59;5.63;;;3.27;;
52320;SDS011;38261;54.090;13.382;2023-08-06T06:56:21;10.20;;;3.40;;
52320;SDS011;38261;54.090;13.382;2023-08-06T06:57:43;11.60;;;4.33;;
52320;SDS011;38261;54.090;13.382;2023-08-06T06:59:05;8.73;;;3.30;;
52320;SDS011;38261;54.090;13.382;2023-08-06T07:00:27;10.13;;;3.10;;
52320;SDS011;38261;54.090;13.382;2023-08-06T07:01:49;4.17;;;3.07;;
52320;SDS011;38261;54.090;13.382;2023-08-06T07:03:12;5.90;;;3.30;;
52320;SDS011;38261;54.090;13.382;2023-08-06T07:04:34;10.50;;;3.93;;
52320;SDS011;38261;54.090;13.382;2023-08-06T07:05:59;7.43;;;3.47;;
52320;SDS011;38261;54.090;13.382;2023-08-06T07:07:21;7.03;;;4.13;;
52320;SDS011;38261;54.090;13.382;2023-08-06T07:08:44;7.23;;;3.37;;
52320;SDS011;38261;54.090;13.382;2023-08-06T07:10:06;7.93;;;3.67;;
52320;SDS011;38261;54.090;13.382;2023-08-06T07:11:29;3.50;;;3.17;;
52320;SDS011;38261;54.090;13.382;2023-08-06T07:12:51;5.53;;;3.53;;
52320;SDS011;38261;54.090;13.382;2023-08-06T07:14:13;10.33;;;3.87;;
52320;SDS011;38261;54.090;13.382;2023-08-06T07:15:36;5.90;;;3.60;;
52320;SDS011;38261;54.090;13.382;2023-08-06T07:16:58;11.33;;;3.67;;
52320;SDS011;38261;54.090;13.382;2023-08-06T07:18:20;7.00;;;3.10;;
52320;SDS011;38261;54.090;13.382;2023-08-06T07:19:42;5.67;;;3.93;;
52320;SDS011;38261;54.090;13.382;2023-08-06T07:21:04;7.30;;;3.50;;
52320;SDS011;38261;54.090;13.382;2023-08-06T07:22:26;6.33;;;3.40;;
52320;SDS011;38261;54.090;13.382;2023-08-06T07:23:48;6.00;;;3.70;;
52320;SDS011;38261;54.090;13.382;2023-08-06T07:25:11;7.50;;;3.33;;
52320;SDS011;38261;54.090;13.382;2023-08-06T07:26:33;8.33;;;3.23;;
52320;SDS011;38261;54.090;13.382;2023-08-06T07:27:55;11.20;;;3.77;;
52320;SDS011;38261;54.090;13.382;2023-08-06T07:29:18;8.47;;;3.77;;
52320;SDS011;38261;54.090;13.382;2023-08-06T07:30:43;9.70;;;3.70;;
52320;SDS011;38261;54.090;13.382;2023-08-06T07:32:06;7.93;;;3.50;;
52320;SDS011;38261;54.090;13.382;2023-08-06T07:33:29;4.80;;;3.40;;
52320;SDS011;38261;54.090;13.382;2023-08-06T07:34:51;5.97;;;3.73;;
52320;SDS011;38261;54.090;13.382;2023-08-06T07:36:18;8.43;;;3.73;;
52320;SDS011;38261;54.090;13.382;2023-08-06T07:37:40;4.67;;;3.20;;
52320;SDS011;38261;54.090;13.382;2023-08-06T07:39:02;16.23;;;4.40;;
52320;SDS011;38261;54.090;13.382;2023-08-06T07:40:27;12.80;;;4.00;;
52320;SDS011;38261;54.090;13.382;2023-08-06T07:41:49;8.67;;;4.63;;
52320;SDS011;38261;54.090;13.382;2023-08-06T07:43:12;8.53;;;3.93;;
52320;SDS011;38261;54.090;13.382;2023-08-06T07:44:34;13.17;;;4.57;;
52320;SDS011;38261;54.090;13.382;2023-08-06T07:46:00;10.50;;;4.10;;
52320;SDS011;38261;54.090;13.382;2023-08-06T07:47:22;10.60;;;3.27;;
52320;SDS011;38261;54.090;13.382;2023-08-06T07:48:44;9.47;;;3.60;;
52320;SDS011;38261;54.090;13.382;2023-08-06T07:50:06;11.70;;;5.13;;
52320;SDS011;38261;54.090;13.382;2023-08-06T07:51:29;11.33;;;4.00;;
52320;SDS011;38261;54.090;13.382;2023-08-06T07:52:51;11.33;;;4.17;;
52320;SDS011;38261;54.090;13.382;2023-08-06T07:54:13;6.20;;;3.90;;
52320;SDS011;38261;54.090;13.382;2023-08-06T07:55:35;10.37;;;4.10;;
52320;SDS011;38261;54.090;13.382;2023-08-06T07:56:57;8.87;;;4.77;;
52320;SDS011;38261;54.090;13.382;2023-08-06T07:58:19;7.17;;;3.83;;
52320;SDS011;38261;54.090;13.382;2023-08-06T07:59:42;12.60;;;3.90;;
52320;SDS011;38261;54.090;13.382;2023-08-06T08:01:05;8.90;;;4.10;;
52320;SDS011;38261;54.090;13.382;2023-08-06T08:02:28;6.13;;;3.70;;
52320;SDS011;38261;54.090;13.382;2023-08-06T08:03:51;9.80;;;4.83;;
52320;SDS011;38261;54.090;13.382;2023-08-06T08:05:14;8.97;;;4.00;;
52320;SDS011;38261;54.090;13.382;2023-08-06T08:06:36;9.03;;;3.90;;
52320;SDS011;38261;54.090;13.382;2023-08-06T08:07:58;11.30;;;4.03;;
52320;SDS011;38261;54.090;13.382;2023-08-06T08:09:20;8.80;;;3.67;;
52320;SDS011;38261;54.090;13.382;2023-08-06T08:10:42;7.43;;;3.60;;
52320;SDS011;38261;54.090;13.382;2023-08-06T08:12:04;10.40;;;4.00;;
52320;SDS011;38261;54.090;13.382;2023-08-06T08:13:27;6.80;;;3.70;;